Bewolking Meer informatie Parkstad Weather Satellite


Neerslagradar Meer informatie Parkstad Rain Snow Radar


Onweersbuien Meer informatie Parkstad Lighntning


24/7 Weercamera Meer informatie Parkstad Weathercam


Natuurbrandrisico
CBI






Het weer levert geen direct gevaar op in Parkstad.    Er zijn geen waarschuwingen afgegeven voor Parkstad (045)

METAR rapporten vliegvelden

   
EHAM - Amsterdam
Gewijzigd: 17-09-2021 21:25
Verouderd
Helder  
Helder  
   Wind: NW 3.7 km/h
Wind: NW 3.7 km/h
Temperatuur: 15°C
Dauwpunt: 14°C
Vochtigheid: 94%
Barometer: 1015 hPa
Zicht: meer dan 10 km
Bewolking: Helder
EHAM 171925Z 32002KT CAVOK 15/14 Q1015 NOSIG
EBAW - Antwerpen
Gewijzigd: 17-09-2021 21:20
Verouderd
Helder  
Helder  
   Wind: OZO 1.9 km/h
Wind: OZO 1.9 km/h
Temperatuur: 15°C
Dauwpunt: 12°C
Vochtigheid: 82%
Barometer: 1015 hPa
Zicht: meer dan 10 km
Bewolking: Helder
EBAW 171920Z 12001KT CAVOK 15/12 Q1015 NOSIG
EGLL - London
Gewijzigd: 17-09-2021 21:20
Verouderd
Helder  
Helder  
   Wind: Zuiden 9.3 km/h
Wind: Zuiden 9.3 km/h
Temperatuur: 18°C
Dauwpunt: 13°C
Vochtigheid: 73%
Barometer: 1013 hPa
Satelliet beelden: Helder
Zicht: meer dan 10 km
Bewolking: Helder
EGLL 171920Z AUTO 17005KT 9999 NCD 18/13 Q1013
ELLX - Luxemburg
Gewijzigd: 17-09-2021 21:20
Verouderd
Helder  
Helder  
   Wind: NO 5.6 km/h
Wind: NO 5.6 km/h
Temperatuur: 14°C
Dauwpunt: 10°C
Vochtigheid: 77%
Barometer: 1016 hPa
Zicht: meer dan 10 km
Bewolking: Helder
ELLX 171920Z 04003KT CAVOK 14/10 Q1016 NOSIG
EDDM - München
Gewijzigd: 17-09-2021 21:20
Verouderd
Helder  
Helder  
   Wind: Noorden 1.9 km/h
Wind: Noorden 1.9 km/h
Temperatuur: 10°C
Dauwpunt: 10°C
Vochtigheid: 100%
Barometer: 1017 hPa
Zicht: meer dan 10 km
Bewolking: Helder
EDDM 171920Z 36001KT CAVOK 10/10 Q1017 NOSIG
LFPO - Parijs
Gewijzigd: 17-09-2021 21:30
Verouderd
Helder  
Helder  
   Wind: ZO 3.7 km/h
Wind: ZO 3.7 km/h
Temperatuur: 17°C
Dauwpunt: 12°C
Vochtigheid: 73%
Barometer: 1015 hPa
Zicht: meer dan 10 km
Bewolking: Helder
LFPO 171930Z 13002KT CAVOK 17/12 Q1015 NOSIG
EDDL - Düsseldorf
Gewijzigd: 17-09-2021 21:20
Verouderd
Grotendeels bewolkt  
Grotendeels bewolkt  
   Wind: varieert 3.7 km/h
Wind: varieert 3.7 km/h
Temperatuur: 15°C
Dauwpunt: 14°C
Vochtigheid: 94%
Barometer: 1015 hPa
Satelliet beelden: Grotendeels bewolkt
Zicht: meer dan 10 km
Bewolking: Grotendeels bewolkt 1189 m
EDDL 171920Z VRB02KT 9999 BKN039 15/14 Q1015 NOSIG
EDDK - Köln/Bonn Duitsland
Gewijzigd: 17-09-2021 21:20
Verouderd
Licht bewolkt  
Licht bewolkt  
   Wind: ONO 5.6 km/h
Wind: ONO 5.6 km/h
Temperatuur: 14°C
Dauwpunt: 13°C
Vochtigheid: 94%
Barometer: 1016 hPa
Satelliet beelden: Licht bewolkt
Zicht: meer dan 10 km
Bewolking: Licht bewolkt 1250 m
EDDK 171920Z 06003KT 9999 FEW041 14/13 Q1016 NOSIG
TNCA - Oranjestad Aruba
Gewijzigd: 17-09-2021 21:00
Verouderd
Gedeeltelijk bewolkt  
Gedeeltelijk bewolkt  
   Wind: Oosten 33.3 km/h
Wind: Oosten 33.3 km/h
Temperatuur: 32°C
Gevoelstemperatuur: 38°C
Dauwpunt: 24°C
Vochtigheid: 63%
Barometer: 1012 hPa
Satelliet beelden: Gedeeltelijk bewolkt
Zicht: meer dan 10 km
Bewolking: Gedeeltelijk bewolkt 793 m
TNCA 171900Z 09018KT 9999 SCT026 32/24 Q1012 NOSIG
TNCC - Willemstad Curacao
Gewijzigd: 17-09-2021 21:00
Verouderd
Licht bewolkt  
Licht bewolkt  
   Wind: Oosten 24.1 km/h
Wind: Oosten 24.1 km/h
Temperatuur: 32°C
Gevoelstemperatuur: 39°C
Dauwpunt: 25°C
Vochtigheid: 67%
Barometer: 1012 hPa
Satelliet beelden: Licht bewolkt
Zicht: meer dan 10 km
Bewolking: Licht bewolkt 793 m
TNCC 171900Z 09013KT 9999 FEW026 32/25 Q1012 NOSIG
LEAL - La Nucia Spanje
Gewijzigd: 17-09-2021 21:30
Verouderd
Helder  
Helder  
   Wind: Windstil
Wind: Windstil
Temperatuur: 25°C
Dauwpunt: 20°C
Vochtigheid: 74%
Barometer: 1014 hPa
Zicht: meer dan 10 km
Bewolking: Helder
LEAL 171930Z 00000KT CAVOK 25/20 Q1014 NOSIG
 

Script ontwikkeld door  Saratoga-weather.org Aangepast voor de template door  Weerstation Leuven

U vindt ons ook hier:

Het Weer Aktueel

WOW Nederland KNMI

Vereniging voor Weerkunde en Klimatologie

UK Met Office Weather Observation Website (WOW)

WeatherCloud

Weather Underground

Awekas

MeteoMap.Cloud

HAMweather, WeatherForYou, PWS Weather

Citizen Weather Observer Program (CWOP)

Apparatuur in gebruik:

Hardwareleverancier
Weerhuisje

Weerstation
Vantage Pro2+ UV

Weercomputer's
alix3d2 & wl330n

Weerprogramma's
Smartbedded

Satelliet NOAA's
WRX137 & KX137

Satelliet Eumetsat
Ayecka SR1 & Triax

Bliksemdetectie
Boltek StormTracker

Webleverancier
F-Service

Weerhuisje

Vantage Pro2+ UV

alix3d2 & wl330n

Smartbedded

WRX137 & KX137

Ayecka SR1 & Triax

Boltek StormTracker

F-Service